createdAt,value
2023-02-06T00:00:48.644Z,83.04
2023-02-06T00:03:15.221Z,83.90
2023-02-06T00:05:41.657Z,84.04
2023-02-06T00:08:08.160Z,84.74
2023-02-06T00:10:34.885Z,84.35
2023-02-06T00:13:01.329Z,84.17
2023-02-06T00:15:27.744Z,84.82
2023-02-06T00:17:54.214Z,85.22
2023-02-06T00:20:20.741Z,85.13
2023-02-06T00:22:47.147Z,85.05
2023-02-06T00:25:13.549Z,84.76
2023-02-06T00:27:39.936Z,85.34
2023-02-06T00:30:06.781Z,84.83
2023-02-06T00:32:34.677Z,84.52
2023-02-06T00:35:01.262Z,84.96
2023-02-06T00:37:27.732Z,84.37
2023-02-06T00:39:54.116Z,85.24
2023-02-06T00:42:20.685Z,85.31
2023-02-06T00:44:47.069Z,85.85
2023-02-06T00:47:15.053Z,85.93
2023-02-06T00:49:41.472Z,85.86
2023-02-06T00:52:07.876Z,85.62
2023-02-06T00:54:34.305Z,85.35
2023-02-06T00:57:00.713Z,83.73
2023-02-06T00:59:27.096Z,84.94
2023-02-06T01:01:53.557Z,85.14
2023-02-06T01:04:20.021Z,85.11
2023-02-06T01:06:46.411Z,85.23
2023-02-06T01:09:12.811Z,85.94
2023-02-06T01:11:39.202Z,86.70
2023-02-06T01:14:05.665Z,86.77
2023-02-06T01:16:32.054Z,87.18
2023-02-06T01:18:58.507Z,86.53
2023-02-06T01:21:25.684Z,87.01
2023-02-06T01:23:54.369Z,86.58
2023-02-06T01:26:24.104Z,86.23
2023-02-06T01:28:50.971Z,85.80
2023-02-06T01:31:26.000Z,85.41
2023-02-06T01:33:52.550Z,85.99
2023-02-06T01:36:20.110Z,85.91
2023-02-06T01:38:47.898Z,85.55
2023-02-06T01:41:16.113Z,85.33
2023-02-06T01:43:45.643Z,85.87
2023-02-06T01:46:12.200Z,85.40
2023-02-06T01:48:42.314Z,85.05
2023-02-06T01:51:14.585Z,85.13
2023-02-06T01:53:44.608Z,85.32
2023-02-06T01:56:13.304Z,85.10
2023-02-06T01:58:44.858Z,84.96
2023-02-06T02:01:11.374Z,85.44
2023-02-06T02:03:42.548Z,85.64
2023-02-06T02:06:13.420Z,85.84
2023-02-06T02:08:42.864Z,86.55
2023-02-06T02:11:16.074Z,86.53
2023-02-06T02:13:42.791Z,86.93
2023-02-06T02:16:22.862Z,86.89
2023-02-06T02:19:27.209Z,88.54
2023-02-06T02:22:41.105Z,88.20
2023-02-06T02:25:19.580Z,88.16
2023-02-06T02:28:26.883Z,88.54
2023-02-06T02:31:38.884Z,88.87
2023-02-06T02:34:39.257Z,88.42
2023-02-06T02:37:15.922Z,88.56
2023-02-06T02:39:54.898Z,87.00
2023-02-06T02:42:30.515Z,86.24
2023-02-06T02:45:09.568Z,87.26
2023-02-06T02:47:45.227Z,88.20
2023-02-06T03:08:16.668Z,89.10
2023-02-06T03:10:58.862Z,90.19
2023-02-06T03:13:48.853Z,90.58
2023-02-06T03:16:29.749Z,91.30
2023-02-06T03:19:19.047Z,92.09
2023-02-06T03:21:47.303Z,91.57
2023-02-06T03:24:18.141Z,90.66
2023-02-06T03:26:48.410Z,90.96
2023-02-06T03:29:16.839Z,91.69
2023-02-06T03:31:54.097Z,93.36
2023-02-06T03:34:29.102Z,92.51
2023-02-06T03:36:55.661Z,92.13
2023-02-06T03:39:22.956Z,93.75
2023-02-06T03:41:49.944Z,94.63
2023-02-06T03:44:22.330Z,93.88
2023-02-06T03:46:52.336Z,93.52
2023-02-06T03:49:20.765Z,94.17
2023-02-06T03:52:13.105Z,93.65
2023-02-06T03:54:45.403Z,94.26
2023-02-06T03:57:14.165Z,94.16
2023-02-06T03:59:40.756Z,93.79
2023-02-06T04:02:07.926Z,94.30
2023-02-06T04:04:38.394Z,93.82
2023-02-06T04:07:12.849Z,94.21
2023-02-06T04:09:40.330Z,93.73
2023-02-06T04:12:06.868Z,93.91
2023-02-06T04:14:33.393Z,94.26
2023-02-06T04:16:59.813Z,95.82
2023-02-06T04:19:26.201Z,94.70
2023-02-06T04:21:52.606Z,95.58
2023-02-06T04:24:18.997Z,97.39
2023-02-06T04:26:45.443Z,97.40
2023-02-06T04:29:12.775Z,98.05
2023-02-06T04:31:40.182Z,98.28
2023-02-06T04:34:06.648Z,98.73
2023-02-06T04:36:33.438Z,99.99
2023-02-06T04:38:59.963Z,99.10
2023-02-06T04:41:26.381Z,100.00
2023-02-06T04:43:52.780Z,100.00
2023-02-06T04:46:19.264Z,100.00
2023-02-06T04:48:45.700Z,100.00
2023-02-06T04:51:12.089Z,100.00
2023-02-06T04:53:38.495Z,100.00
2023-02-06T04:56:09.788Z,100.00
2023-02-06T04:58:36.716Z,100.00
2023-02-06T05:01:03.133Z,100.00
2023-02-06T05:03:30.378Z,100.00
2023-02-06T05:05:59.730Z,100.00
2023-02-06T05:08:26.481Z,100.00
2023-02-06T05:10:52.905Z,100.00
2023-02-06T05:13:19.804Z,100.00
2023-02-06T05:15:46.423Z,100.00
2023-02-06T05:18:12.988Z,100.00
2023-02-06T05:20:39.412Z,100.00
2023-02-06T05:23:05.858Z,100.00
2023-02-06T05:25:32.394Z,100.00
2023-02-06T05:27:58.846Z,100.00
2023-02-06T05:30:25.265Z,100.00
2023-02-06T05:32:51.714Z,100.00
2023-02-06T05:35:18.151Z,100.00
2023-02-06T05:37:44.692Z,100.00
2023-02-06T05:40:11.622Z,100.00
2023-02-06T05:42:38.028Z,100.00
2023-02-06T05:45:04.632Z,100.00
2023-02-06T05:47:31.066Z,100.00
2023-02-06T05:49:57.514Z,100.00
2023-02-06T05:52:23.958Z,100.00
2023-02-06T05:54:50.392Z,100.00
2023-02-06T05:57:16.859Z,100.00
2023-02-06T05:59:43.261Z,100.00
2023-02-06T06:02:09.720Z,100.00
2023-02-06T06:04:36.142Z,100.00
2023-02-06T06:07:03.095Z,100.00
2023-02-06T06:09:29.522Z,100.00
2023-02-06T06:11:55.945Z,100.00
2023-02-06T06:14:22.364Z,100.00
2023-02-06T06:16:48.888Z,100.00
2023-02-06T06:19:15.464Z,100.00
2023-02-06T06:21:41.856Z,100.00
2023-02-06T06:24:08.248Z,100.00
2023-02-06T06:26:34.640Z,100.00
2023-02-06T06:29:01.044Z,100.00
2023-02-06T06:31:27.471Z,100.00
2023-02-06T06:33:54.225Z,100.00
2023-02-06T06:36:20.711Z,100.00
2023-02-06T06:38:47.127Z,100.00
2023-02-06T06:41:13.614Z,100.00
2023-02-06T06:43:40.154Z,100.00
2023-02-06T06:46:06.630Z,100.00
2023-02-06T06:48:33.146Z,100.00
2023-02-06T06:50:59.565Z,100.00
2023-02-06T06:53:25.960Z,100.00
2023-02-06T06:55:52.355Z,100.00
2023-02-06T06:58:18.757Z,100.00
2023-02-06T07:00:45.586Z,100.00
2023-02-06T07:03:12.423Z,100.00
2023-02-06T07:05:38.914Z,100.00
2023-02-06T07:08:05.438Z,100.00
2023-02-06T07:10:31.841Z,100.00
2023-02-06T07:12:58.261Z,100.00
2023-02-06T07:15:24.682Z,100.00
2023-02-06T07:17:51.109Z,100.00
2023-02-06T07:20:17.578Z,100.00
2023-02-06T07:22:44.018Z,100.00
2023-02-06T07:25:21.056Z,100.00
2023-02-06T07:27:47.656Z,100.00
2023-02-06T07:30:14.460Z,100.00
2023-02-06T07:32:40.872Z,100.00
2023-02-06T07:35:07.608Z,100.00
2023-02-06T07:37:33.999Z,100.00
2023-02-06T07:40:00.382Z,100.00
2023-02-06T07:42:26.815Z,100.00
2023-02-06T07:44:57.946Z,100.00
2023-02-06T07:47:24.332Z,100.00
2023-02-06T07:49:50.741Z,100.00
2023-02-06T07:52:17.184Z,100.00
2023-02-06T07:54:43.574Z,100.00
2023-02-06T07:57:09.976Z,100.00
2023-02-06T07:59:36.389Z,100.00
2023-02-06T08:02:02.910Z,100.00
2023-02-06T08:04:35.066Z,100.00
2023-02-06T08:07:02.766Z,100.00
2023-02-06T08:09:29.475Z,100.00
2023-02-06T08:11:55.885Z,100.00
2023-02-06T08:14:22.391Z,100.00
2023-02-06T08:16:49.795Z,100.00
2023-02-06T08:19:16.274Z,100.00
2023-02-06T08:21:42.682Z,100.00
2023-02-06T08:24:11.849Z,100.00
2023-02-06T08:26:38.878Z,100.00
2023-02-06T08:29:08.010Z,100.00
2023-02-06T08:31:37.867Z,100.00
2023-02-06T08:34:05.630Z,100.00
2023-02-06T08:36:32.993Z,100.00
2023-02-06T08:39:00.815Z,100.00
2023-02-06T08:41:30.716Z,100.00
2023-02-06T08:43:59.495Z,100.00
2023-02-06T08:46:28.782Z,100.00
2023-02-06T08:48:56.743Z,100.00
2023-02-06T08:51:23.457Z,100.00
2023-02-06T08:53:49.882Z,100.00
2023-02-06T08:56:16.284Z,100.00
2023-02-06T08:58:42.754Z,100.00
2023-02-06T09:01:14.341Z,100.00
2023-02-06T09:03:41.802Z,100.00
2023-02-06T09:06:10.543Z,100.00
2023-02-06T09:08:38.322Z,100.00
2023-02-06T09:11:10.420Z,100.00
2023-02-06T09:13:37.830Z,100.00
2023-02-06T09:16:05.616Z,100.00
2023-02-06T09:18:32.140Z,100.00
2023-02-06T09:21:04.876Z,100.00
2023-02-06T09:23:31.325Z,100.00
2023-02-06T09:25:57.800Z,100.00
2023-02-06T09:28:24.340Z,100.00
2023-02-06T09:30:50.936Z,100.00
2023-02-06T09:33:17.393Z,100.00
2023-02-06T09:35:43.891Z,100.00
2023-02-06T09:38:10.282Z,100.00
2023-02-06T09:40:37.149Z,100.00
2023-02-06T09:43:03.908Z,100.00
2023-02-06T09:45:31.858Z,100.00
2023-02-06T09:48:16.200Z,100.00
2023-02-06T09:50:55.653Z,100.00
2023-02-06T09:53:34.146Z,100.00
2023-02-06T09:56:19.616Z,100.00
2023-02-06T09:58:57.354Z,100.00
2023-02-06T10:01:38.747Z,100.00
2023-02-06T10:04:29.847Z,100.00
2023-02-06T10:07:16.993Z,100.00
2023-02-06T10:10:06.631Z,100.00
2023-02-06T10:12:42.476Z,100.00
2023-02-06T10:15:17.360Z,100.00
2023-02-06T10:17:52.147Z,100.00
2023-02-06T10:20:26.277Z,100.00
2023-02-06T10:23:10.501Z,100.00
2023-02-06T10:25:42.344Z,100.00
2023-02-06T10:28:17.623Z,100.00
2023-02-06T10:30:59.367Z,100.00
2023-02-06T10:33:36.104Z,100.00
2023-02-06T10:36:25.563Z,100.00
2023-02-06T10:39:13.627Z,100.00
2023-02-06T10:41:55.842Z,100.00
2023-02-06T10:44:35.942Z,100.00
2023-02-06T10:47:04.596Z,100.00
2023-02-06T10:49:39.138Z,100.00
2023-02-06T10:52:24.059Z,100.00
2023-02-06T10:54:57.494Z,100.00
2023-02-06T10:57:28.481Z,100.00
2023-02-06T10:59:59.946Z,100.00
2023-02-06T11:03:06.221Z,100.00
2023-02-06T11:05:33.858Z,100.00
2023-02-06T11:08:25.228Z,100.00
2023-02-06T11:10:51.926Z,100.00
2023-02-06T11:13:29.676Z,100.00
2023-02-06T11:16:01.326Z,100.00
2023-02-06T11:18:59.879Z,100.00
2023-02-06T11:21:41.493Z,100.00
2023-02-06T11:24:14.076Z,100.00
2023-02-06T11:26:42.786Z,100.00
2023-02-06T11:29:16.533Z,100.00
2023-02-06T11:31:46.331Z,100.00
2023-02-06T11:34:28.109Z,100.00
2023-02-06T11:36:57.650Z,100.00
2023-02-06T11:39:30.577Z,100.00
2023-02-06T11:42:05.473Z,100.00
2023-02-06T11:44:40.796Z,100.00
2023-02-06T11:47:35.513Z,100.00
2023-02-06T11:50:28.381Z,100.00
2023-02-06T11:53:00.241Z,100.00
2023-02-06T11:55:30.636Z,100.00
2023-02-06T11:58:12.088Z,100.00
2023-02-06T12:00:40.746Z,100.00
2023-02-06T12:03:27.230Z,100.00
2023-02-06T12:05:55.287Z,100.00
2023-02-06T12:08:53.181Z,100.00
2023-02-06T12:11:35.390Z,100.00
2023-02-06T12:14:09.637Z,100.00
2023-02-06T12:16:39.757Z,100.00
2023-02-06T12:19:14.174Z,100.00
2023-02-06T12:21:45.228Z,100.00
2023-02-06T12:24:32.370Z,100.00
2023-02-06T12:27:04.042Z,100.00
2023-02-06T12:29:41.738Z,100.00
2023-02-06T12:32:22.834Z,100.00
2023-02-06T12:34:55.843Z,100.00
2023-02-06T12:37:39.730Z,100.00
2023-02-06T12:40:34.978Z,100.00
2023-02-06T12:43:06.641Z,100.00
2023-02-06T12:45:42.010Z,100.00
2023-02-06T12:48:17.553Z,100.00
2023-02-06T12:50:56.765Z,100.00
2023-02-06T12:53:35.236Z,100.00
2023-02-06T12:56:24.308Z,100.00
2023-02-06T12:59:06.477Z,100.00
2023-02-06T13:01:46.790Z,100.00
2023-02-06T13:04:18.108Z,100.00
2023-02-06T13:06:50.833Z,100.00
2023-02-06T13:09:28.805Z,100.00
2023-02-06T13:12:26.381Z,100.00
2023-02-06T13:14:56.402Z,100.00
2023-02-06T13:17:33.602Z,100.00
2023-02-06T13:20:09.909Z,100.00
2023-02-06T13:22:44.773Z,100.00
2023-02-06T13:25:26.249Z,100.00
2023-02-06T13:27:53.664Z,100.00
2023-02-06T13:30:29.019Z,100.00
2023-02-06T13:32:58.733Z,100.00
2023-02-06T13:35:30.155Z,100.00
2023-02-06T13:38:22.857Z,100.00
2023-02-06T13:41:15.167Z,100.00
2023-02-06T13:43:47.682Z,100.00
2023-02-06T13:46:23.500Z,100.00
2023-02-06T13:49:31.720Z,100.00
2023-02-06T13:52:18.531Z,100.00
2023-02-06T13:55:20.254Z,100.00
2023-02-06T13:58:18.880Z,100.00
2023-02-06T14:00:47.750Z,100.00
2023-02-06T14:03:29.510Z,100.00
2023-02-06T14:06:20.625Z,100.00
2023-02-06T14:09:06.021Z,100.00
2023-02-06T14:12:17.969Z,100.00
2023-02-06T14:15:19.324Z,100.00
2023-02-06T14:18:01.424Z,100.00
2023-02-06T14:21:02.390Z,100.00
2023-02-06T14:23:51.918Z,100.00
2023-02-06T14:26:46.845Z,100.00
2023-02-06T14:29:23.100Z,100.00
2023-02-06T14:32:26.920Z,100.00
2023-02-06T14:35:06.710Z,100.00
2023-02-06T14:38:05.776Z,100.00
2023-02-06T14:40:41.524Z,100.00
2023-02-06T14:43:15.151Z,100.00
2023-02-06T14:45:46.241Z,100.00
2023-02-06T14:48:56.798Z,100.00
2023-02-06T14:51:39.066Z,100.00
2023-02-06T14:54:26.383Z,100.00
2023-02-06T14:56:57.942Z,100.00
2023-02-06T14:59:25.064Z,100.00
2023-02-06T15:01:53.311Z,100.00
2023-02-06T15:04:23.455Z,100.00
2023-02-06T15:07:00.981Z,100.00
2023-02-06T15:09:30.629Z,100.00
2023-02-06T15:12:02.822Z,100.00
2023-02-06T15:14:32.596Z,100.00
2023-02-06T15:17:00.852Z,100.00
2023-02-06T15:19:30.134Z,100.00
2023-02-06T15:22:02.332Z,100.00
2023-02-06T15:24:51.330Z,100.00
2023-02-06T15:27:29.193Z,100.00
2023-02-06T15:29:56.804Z,100.00
2023-02-06T15:32:33.193Z,100.00
2023-02-06T15:35:01.022Z,100.00
2023-02-06T15:37:33.710Z,100.00
2023-02-06T15:40:06.817Z,100.00
2023-02-06T15:42:33.532Z,100.00
2023-02-06T15:45:00.612Z,100.00
2023-02-06T15:47:27.573Z,100.00
2023-02-06T15:49:54.243Z,100.00
2023-02-06T15:52:42.717Z,100.00
2023-02-06T15:55:27.462Z,100.00
2023-02-06T15:57:55.656Z,100.00
2023-02-06T16:00:27.470Z,100.00
2023-02-06T16:02:58.666Z,100.00
2023-02-06T16:05:37.268Z,100.00
2023-02-06T16:08:09.974Z,100.00
2023-02-06T16:10:38.528Z,100.00
2023-02-06T16:13:12.034Z,100.00
2023-02-06T16:15:40.144Z,100.00
2023-02-06T16:18:28.917Z,100.00
2023-02-06T16:21:17.976Z,100.00
2023-02-06T16:23:50.893Z,100.00
2023-02-06T16:26:19.011Z,100.00
2023-02-06T16:29:00.423Z,100.00
2023-02-06T16:31:29.575Z,99.06
2023-02-06T16:34:03.006Z,98.85
2023-02-06T16:36:32.042Z,99.40
2023-02-06T16:39:04.079Z,99.85
2023-02-06T16:41:33.722Z,100.00
2023-02-06T16:44:01.308Z,99.82
2023-02-06T16:46:28.869Z,100.00
2023-02-06T16:48:57.959Z,100.00
2023-02-06T16:51:27.214Z,100.00
2023-02-06T16:53:53.864Z,100.00
2023-02-06T16:56:21.529Z,100.00
2023-02-06T16:58:48.599Z,100.00
2023-02-06T17:01:25.497Z,99.79
2023-02-06T17:03:52.991Z,100.00
2023-02-06T17:06:28.864Z,100.00
2023-02-06T17:09:01.933Z,99.91
2023-02-06T17:11:28.385Z,100.00
2023-02-06T17:13:54.794Z,100.00
2023-02-06T17:16:23.567Z,98.68
2023-02-06T17:18:50.893Z,98.05
2023-02-06T17:21:20.271Z,99.56
2023-02-06T17:23:48.753Z,98.46
2023-02-06T17:26:18.049Z,98.31
2023-02-06T17:28:45.340Z,98.44
2023-02-06T17:31:12.553Z,98.17
2023-02-06T17:33:39.340Z,98.33
2023-02-06T17:36:07.988Z,99.18
2023-02-06T17:38:34.505Z,97.93
2023-02-06T17:41:00.963Z,97.01
2023-02-06T17:43:30.647Z,97.26
2023-02-06T17:45:57.092Z,98.72
2023-02-06T17:48:23.516Z,99.33
2023-02-06T17:50:49.924Z,99.34
2023-02-06T17:53:16.474Z,99.51
2023-02-06T17:55:44.949Z,99.86
2023-02-06T17:58:11.356Z,99.71
2023-02-06T18:00:38.209Z,99.69
2023-02-06T18:03:05.346Z,98.25
2023-02-06T18:05:32.137Z,99.16
2023-02-06T18:07:58.552Z,98.80
2023-02-06T18:10:25.622Z,98.25
2023-02-06T18:12:52.402Z,100.00
2023-02-06T18:15:18.860Z,100.00
2023-02-06T18:17:45.287Z,99.31
2023-02-06T18:20:12.373Z,99.21
2023-02-06T18:22:41.207Z,98.81
2023-02-06T18:25:13.497Z,99.14
2023-02-06T18:27:41.442Z,98.99
2023-02-06T18:30:09.528Z,99.32
2023-02-06T18:32:37.502Z,98.76
2023-02-06T18:35:04.572Z,98.49
2023-02-06T18:37:30.994Z,98.52
2023-02-06T18:39:57.402Z,98.43
2023-02-06T18:42:42.643Z,98.09
2023-02-06T18:45:09.359Z,97.48
2023-02-06T18:47:35.820Z,97.79
2023-02-06T18:50:02.294Z,97.65
2023-02-06T18:52:29.026Z,97.31
2023-02-06T18:54:55.448Z,97.99
2023-02-06T18:57:21.869Z,97.66
2023-02-06T18:59:48.255Z,96.83
2023-02-06T19:02:14.745Z,97.09
2023-02-06T19:04:41.272Z,96.86
2023-02-06T19:07:08.883Z,97.17
2023-02-06T19:09:35.315Z,96.83
2023-02-06T19:12:01.737Z,96.72
2023-02-06T19:14:28.144Z,95.63
2023-02-06T19:16:54.960Z,95.78
2023-02-06T19:19:21.411Z,95.27
2023-02-06T19:21:47.938Z,94.86
2023-02-06T19:24:16.275Z,94.69
2023-02-06T19:26:42.677Z,94.29
2023-02-06T19:29:09.815Z,94.32
2023-02-06T19:31:39.105Z,93.43
2023-02-06T19:34:05.844Z,94.49
2023-02-06T19:36:32.640Z,94.41
2023-02-06T19:39:02.358Z,93.82
2023-02-06T19:41:31.119Z,92.54
2023-02-06T19:44:00.568Z,93.51
2023-02-06T19:46:27.530Z,93.76
2023-02-06T19:48:54.968Z,93.55
2023-02-06T19:51:27.374Z,93.40
2023-02-06T19:53:55.650Z,93.22
2023-02-06T19:56:25.404Z,93.56
2023-02-06T19:58:56.674Z,93.27
2023-02-06T20:01:24.006Z,93.77
2023-02-06T20:03:51.121Z,92.73
2023-02-06T20:06:18.188Z,91.54
2023-02-06T20:08:45.712Z,92.66
2023-02-06T20:11:17.740Z,91.62
2023-02-06T20:13:45.953Z,92.26
2023-02-06T20:16:18.938Z,92.34
2023-02-06T20:18:45.822Z,92.49
2023-02-06T20:21:23.592Z,92.48
2023-02-06T20:23:50.674Z,92.00
2023-02-06T20:26:18.943Z,90.48
2023-02-06T20:28:46.137Z,91.34
2023-02-06T20:31:13.301Z,91.33
2023-02-06T20:33:40.192Z,91.39
2023-02-06T20:36:13.175Z,91.98
2023-02-06T20:38:39.673Z,92.48
2023-02-06T20:41:07.617Z,91.43
2023-02-06T20:43:35.786Z,91.72
2023-02-06T20:46:07.207Z,91.96
2023-02-06T20:48:36.853Z,91.37
2023-02-06T20:51:05.585Z,91.32
2023-02-06T20:53:32.306Z,90.60
2023-02-06T20:55:58.973Z,91.00
2023-02-06T20:58:25.877Z,91.49
2023-02-06T21:00:52.956Z,91.23
2023-02-06T21:03:19.433Z,91.00
2023-02-06T21:05:55.276Z,91.05
2023-02-06T21:08:21.693Z,90.23
2023-02-06T21:10:52.524Z,89.40
2023-02-06T21:13:19.410Z,89.07
2023-02-06T21:15:51.850Z,89.58
2023-02-06T21:18:18.360Z,88.99
2023-02-06T21:20:44.799Z,88.63
2023-02-06T21:23:11.376Z,89.25
2023-02-06T21:25:38.185Z,89.79
2023-02-06T21:28:05.274Z,89.39
2023-02-06T21:30:32.285Z,89.22
2023-02-06T21:32:58.685Z,89.16
2023-02-06T21:35:28.594Z,88.80
2023-02-06T21:37:54.996Z,89.46
2023-02-06T21:40:21.496Z,89.29
2023-02-06T21:42:47.980Z,89.26
2023-02-06T21:45:14.542Z,89.45
2023-02-06T21:47:41.074Z,89.26
2023-02-06T21:50:08.042Z,89.25
2023-02-06T21:52:35.322Z,89.01
2023-02-06T21:55:01.848Z,89.15
2023-02-06T21:57:28.335Z,89.10
2023-02-06T21:59:54.746Z,89.74
2023-02-06T22:02:21.265Z,89.09
2023-02-06T22:04:47.666Z,88.49
2023-02-06T22:07:14.076Z,88.88
2023-02-06T22:09:40.485Z,88.91
2023-02-06T22:12:07.383Z,88.34
2023-02-06T22:14:35.104Z,88.50
2023-02-06T22:17:01.892Z,88.12
2023-02-06T22:19:28.329Z,88.05
2023-02-06T22:21:54.725Z,87.94
2023-02-06T22:24:21.332Z,88.37
2023-02-06T22:26:47.744Z,89.53
2023-02-06T22:29:15.904Z,89.01
2023-02-06T22:31:43.683Z,89.08
2023-02-06T22:34:16.205Z,88.43
2023-02-06T22:36:44.462Z,88.67
2023-02-06T22:39:14.983Z,88.34
2023-02-06T22:41:44.158Z,88.28
2023-02-06T22:44:16.403Z,88.10
2023-02-06T22:46:45.576Z,87.42
2023-02-06T22:49:12.425Z,86.89
2023-02-06T22:51:39.838Z,87.81
2023-02-06T22:54:09.319Z,87.58
2023-02-06T22:56:37.373Z,87.71
2023-02-06T22:59:10.912Z,87.83
2023-02-06T23:01:42.939Z,87.49
2023-02-06T23:04:21.702Z,86.87
2023-02-06T23:06:48.916Z,87.41
2023-02-06T23:09:18.901Z,87.67
2023-02-06T23:11:45.946Z,88.41
2023-02-06T23:14:13.838Z,88.81
2023-02-06T23:16:41.254Z,88.01
2023-02-06T23:19:08.493Z,88.60
2023-02-06T23:21:37.067Z,88.55
2023-02-06T23:24:05.713Z,87.95
2023-02-06T23:26:33.324Z,87.79
2023-02-06T23:29:01.916Z,87.58
2023-02-06T23:31:28.673Z,87.47
2023-02-06T23:33:55.873Z,87.31
2023-02-06T23:36:24.415Z,87.20
2023-02-06T23:38:51.839Z,87.42
2023-02-06T23:41:20.946Z,87.21
2023-02-06T23:43:52.021Z,86.69
2023-02-06T23:46:19.907Z,86.43
2023-02-06T23:48:48.467Z,85.98
2023-02-06T23:51:15.358Z,86.38
2023-02-06T23:53:42.152Z,86.78
2023-02-06T23:56:22.966Z,86.45
2023-02-06T23:58:49.929Z,87.02
